createdAt,value
2019-06-07T00:00:41.939Z,11.44
2019-06-07T00:03:46.432Z,11.41
2019-06-07T00:06:50.871Z,11.41
2019-06-07T00:09:55.325Z,11.42
2019-06-07T00:13:00.048Z,11.52
2019-06-07T00:16:05.092Z,11.39
2019-06-07T00:19:09.639Z,11.41
2019-06-07T00:22:23.784Z,11.39
2019-06-07T00:25:24.300Z,11.43
2019-06-07T00:28:27.146Z,11.38
2019-06-07T00:31:31.919Z,11.44
2019-06-07T00:34:36.372Z,11.32
2019-06-07T00:37:40.897Z,11.45
2019-06-07T00:40:45.345Z,11.50
2019-06-07T00:43:49.799Z,11.55
2019-06-07T00:46:54.245Z,11.40
2019-06-07T00:49:58.687Z,11.18
2019-06-07T00:53:28.775Z,11.08
2019-06-07T00:56:09.298Z,10.96
2019-06-07T00:59:16.238Z,10.81
2019-06-07T01:02:24.719Z,10.70
2019-06-07T01:05:31.296Z,10.74
2019-06-07T01:08:32.878Z,10.80
2019-06-07T01:11:37.325Z,10.82
2019-06-07T01:14:41.798Z,10.70
2019-06-07T01:18:25.888Z,10.72
2019-06-07T01:20:52.413Z,10.77
2019-06-07T01:24:11.490Z,10.85
2019-06-07T01:27:03.039Z,10.81
2019-06-07T01:30:12.964Z,10.62
2019-06-07T01:33:18.328Z,10.62
2019-06-07T01:36:28.513Z,10.62
2019-06-07T01:39:31.514Z,10.63
2019-06-07T01:42:35.449Z,10.75
2019-06-07T01:45:39.906Z,10.64
2019-06-07T01:48:49.524Z,10.78
2019-06-07T01:51:50.521Z,10.74
2019-06-07T01:54:58.653Z,10.76
2019-06-07T01:58:01.480Z,11.02
2019-06-07T02:01:05.921Z,10.99
2019-06-07T02:04:10.434Z,10.90
2019-06-07T02:07:14.882Z,10.98
2019-06-07T02:10:24.062Z,11.13
2019-06-07T02:13:28.874Z,11.21
2019-06-07T02:16:32.690Z,11.16
2019-06-07T02:19:37.242Z,11.17
2019-06-07T02:22:43.336Z,11.13
2019-06-07T02:25:50.465Z,11.12
2019-06-07T02:28:53.956Z,11.13
2019-06-07T02:31:58.417Z,11.29
2019-06-07T02:35:03.164Z,11.39
2019-06-07T02:38:07.573Z,11.29
2019-06-07T02:41:12.033Z,11.14
2019-06-07T02:44:16.472Z,11.28
2019-06-07T02:47:22.600Z,11.40
2019-06-07T02:50:30.346Z,11.48
2019-06-07T02:53:38.382Z,11.48
2019-06-07T02:56:56.682Z,11.54
2019-06-07T03:00:07.054Z,11.57
2019-06-07T03:02:52.139Z,11.73
2019-06-07T03:05:57.731Z,11.65
2019-06-07T03:09:02.782Z,11.70
2019-06-07T03:12:07.973Z,11.62
2019-06-07T03:15:32.134Z,11.64
2019-06-07T03:18:28.727Z,11.57
2019-06-07T03:21:36.511Z,11.43
2019-06-07T03:24:44.093Z,11.47
2019-06-07T03:27:50.419Z,11.54
2019-06-07T03:31:02.421Z,11.51
2019-06-07T03:34:01.342Z,11.53
2019-06-07T03:37:05.791Z,11.50
2019-06-07T03:40:10.681Z,11.32
2019-06-07T03:43:15.125Z,11.30
2019-06-07T03:46:19.581Z,11.37
2019-06-07T03:49:24.021Z,11.35
2019-06-07T03:52:30.132Z,11.34
2019-06-07T03:55:37.775Z,11.36
2019-06-07T03:58:49.855Z,11.32
2019-06-07T04:01:47.385Z,11.28
2019-06-07T04:04:51.830Z,11.29
2019-06-07T04:07:56.289Z,11.21
2019-06-07T04:11:00.968Z,11.25
2019-06-07T04:14:05.541Z,11.14
2019-06-07T04:17:09.994Z,11.12
2019-06-07T04:20:14.501Z,11.13
2019-06-07T04:23:27.877Z,11.28
2019-06-07T04:26:25.413Z,11.23
2019-06-07T04:29:33.912Z,11.36
2019-06-07T04:32:39.038Z,11.33
2019-06-07T04:35:45.234Z,11.43
2019-06-07T04:38:50.681Z,11.47
2019-06-07T04:41:56.841Z,11.50
2019-06-07T04:45:01.476Z,11.65
2019-06-07T04:48:08.102Z,11.81
2019-06-07T04:51:15.054Z,11.87
2019-06-07T04:54:19.747Z,11.86
2019-06-07T04:57:24.219Z,11.89
2019-06-07T05:01:01.430Z,12.09
2019-06-07T05:03:44.601Z,12.29
2019-06-07T05:06:49.081Z,12.42
2019-06-07T05:09:53.548Z,12.49
2019-06-07T05:12:57.993Z,12.47
2019-06-07T05:16:02.443Z,12.36
2019-06-07T05:19:06.895Z,12.36
2019-06-07T05:22:11.403Z,12.53
2019-06-07T05:25:17.013Z,12.62
2019-06-07T05:28:21.475Z,12.62
2019-06-07T05:31:26.099Z,12.81
2019-06-07T05:34:32.234Z,13.02
2019-06-07T05:37:38.210Z,13.16
2019-06-07T05:40:48.728Z,13.29
2019-06-07T05:44:11.274Z,13.38
2019-06-07T05:46:56.804Z,13.43
2019-06-07T05:50:01.285Z,13.58
2019-06-07T05:53:06.862Z,13.68
2019-06-07T05:56:12.906Z,13.64
2019-06-07T05:59:17.959Z,13.81
2019-06-07T06:02:24.568Z,13.87
2019-06-07T06:05:34.270Z,13.86
2019-06-07T06:08:36.593Z,14.11
2019-06-07T06:11:52.148Z,14.22
2019-06-07T06:14:47.228Z,14.31
2019-06-07T06:17:53.886Z,14.38
2019-06-07T06:21:16.203Z,14.46
2019-06-07T06:24:04.127Z,14.69
2019-06-07T06:27:41.539Z,14.90
2019-06-07T06:30:15.682Z,14.92
2019-06-07T06:33:33.284Z,14.99
2019-06-07T06:36:26.307Z,15.21
2019-06-07T06:39:30.777Z,15.42
2019-06-07T06:42:35.275Z,15.61
2019-06-07T06:45:40.241Z,15.70
2019-06-07T06:48:48.294Z,15.82
2019-06-07T06:51:53.605Z,16.17
2019-06-07T06:55:00.821Z,16.44
2019-06-07T06:58:03.679Z,16.66
2019-06-07T07:01:08.125Z,16.75
2019-06-07T07:04:13.890Z,16.96
2019-06-07T07:07:18.717Z,17.15
2019-06-07T07:10:43.096Z,17.43
2019-06-07T07:13:49.871Z,17.59
2019-06-07T07:16:56.681Z,17.71
2019-06-07T07:20:00.573Z,17.94
2019-06-07T07:23:05.627Z,18.07
2019-06-07T07:26:10.095Z,18.24
2019-06-07T07:29:14.535Z,18.42
2019-06-07T07:32:19.308Z,18.50
2019-06-07T07:35:23.763Z,18.59
2019-06-07T07:38:28.209Z,18.72
2019-06-07T07:41:32.726Z,18.82
2019-06-07T07:44:37.171Z,18.89
2019-06-07T07:47:58.380Z,19.05
2019-06-07T07:50:51.445Z,18.99
2019-06-07T07:54:09.056Z,19.15
2019-06-07T07:57:00.430Z,19.31
2019-06-07T08:00:48.861Z,19.49
2019-06-07T08:03:13.322Z,19.39
2019-06-07T08:06:18.017Z,19.46
2019-06-07T08:09:22.445Z,19.59
2019-06-07T08:12:26.895Z,19.79
2019-06-07T08:15:31.529Z,19.94
2019-06-07T08:18:36.037Z,19.83
2019-06-07T08:21:40.475Z,19.96
2019-06-07T08:24:44.909Z,20.19
2019-06-07T08:27:49.682Z,20.33
2019-06-07T08:31:02.427Z,20.58
2019-06-07T08:34:00.872Z,20.66
2019-06-07T08:37:05.918Z,20.79
2019-06-07T08:40:13.700Z,20.91
2019-06-07T08:43:20.991Z,20.94
2019-06-07T08:46:24.336Z,21.01
2019-06-07T08:49:28.780Z,21.02
2019-06-07T08:52:33.230Z,21.10
2019-06-07T08:55:37.983Z,21.26
2019-06-07T08:58:42.440Z,21.50
2019-06-07T09:01:46.884Z,21.49
2019-06-07T09:04:54.697Z,21.62
2019-06-07T09:08:21.751Z,21.74
2019-06-07T09:11:10.223Z,21.84
2019-06-07T09:14:10.157Z,21.89
2019-06-07T09:17:14.790Z,22.13
2019-06-07T09:20:36.550Z,22.15
2019-06-07T09:23:27.592Z,22.14
2019-06-07T09:26:32.225Z,22.18
2019-06-07T09:29:37.601Z,22.41
2019-06-07T09:32:42.048Z,22.45
2019-06-07T09:35:46.506Z,22.64
2019-06-07T09:38:51.598Z,22.88
2019-06-07T09:41:56.519Z,22.89
2019-06-07T09:45:08.185Z,22.97
2019-06-07T09:48:13.701Z,23.15
2019-06-07T09:51:19.877Z,23.23
2019-06-07T09:57:28.137Z,23.57
2019-06-07T10:00:40.863Z,23.62
2019-06-07T10:03:39.120Z,23.72
2019-06-07T10:06:48.093Z,23.82
2019-06-07T10:12:59.523Z,23.84
2019-06-07T10:16:04.808Z,23.97
2019-06-07T10:19:09.899Z,23.88
2019-06-07T10:22:14.539Z,23.98
2019-06-07T10:25:18.991Z,23.89
2019-06-07T10:28:23.518Z,24.03
2019-06-07T10:31:27.965Z,24.14
2019-06-07T10:34:32.418Z,24.31
2019-06-07T10:37:36.888Z,24.42
2019-06-07T10:40:42.577Z,24.64
2019-06-07T10:43:47.033Z,24.75
2019-06-07T10:46:51.744Z,24.82
2019-06-07T10:49:56.274Z,25.02
2019-06-07T10:53:02.287Z,25.05
2019-06-07T10:56:07.114Z,25.09
2019-06-07T10:59:11.998Z,25.14
2019-06-07T11:02:17.880Z,24.98
2019-06-07T11:05:22.510Z,25.01
2019-06-07T11:08:26.963Z,25.26
2019-06-07T11:11:31.406Z,25.39
2019-06-07T11:14:36.170Z,25.41
2019-06-07T11:17:40.895Z,25.52
2019-06-07T11:20:45.622Z,25.68
2019-06-07T11:23:50.461Z,25.52
2019-06-07T11:26:54.897Z,25.55
2019-06-07T11:29:59.610Z,25.54
2019-06-07T11:33:04.341Z,25.62
2019-06-07T11:36:08.784Z,25.73
2019-06-07T11:39:13.246Z,25.75
2019-06-07T11:42:20.064Z,25.74
2019-06-07T11:45:24.204Z,25.67
2019-06-07T11:48:28.653Z,25.90
2019-06-07T11:51:34.018Z,26.02
2019-06-07T11:54:38.465Z,26.14
2019-06-07T11:57:42.922Z,26.34
2019-06-07T12:00:47.501Z,26.42
2019-06-07T12:03:52.378Z,26.59
2019-06-07T12:06:56.838Z,26.54
2019-06-07T12:10:01.283Z,26.67
2019-06-07T12:13:05.795Z,26.72
2019-06-07T12:16:11.262Z,26.76
2019-06-07T12:19:15.893Z,26.88
2019-06-07T12:22:20.485Z,26.95
2019-06-07T12:25:25.302Z,27.09
2019-06-07T12:28:29.832Z,27.16
2019-06-07T12:31:34.265Z,27.23
2019-06-07T12:34:39.058Z,27.29
2019-06-07T12:37:44.868Z,27.31
2019-06-07T12:40:57.464Z,27.05
2019-06-07T12:43:59.111Z,27.10
2019-06-07T12:47:02.177Z,27.27
2019-06-07T12:50:08.333Z,27.25
2019-06-07T12:53:13.581Z,27.21
2019-06-07T12:56:18.198Z,27.35
2019-06-07T12:59:24.203Z,27.41
2019-06-07T13:02:28.808Z,27.54
2019-06-07T13:05:33.448Z,27.70
2019-06-07T13:08:38.226Z,27.70
2019-06-07T13:11:42.742Z,27.78
2019-06-07T13:14:47.251Z,27.75
2019-06-07T13:17:51.742Z,27.68
2019-06-07T13:20:56.458Z,27.71
2019-06-07T13:24:01.052Z,27.68
2019-06-07T13:27:05.653Z,27.83
2019-06-07T13:30:11.371Z,27.97
2019-06-07T13:33:16.834Z,28.03
2019-06-07T13:36:22.416Z,28.02
2019-06-07T13:39:29.710Z,28.11
2019-06-07T13:42:35.222Z,28.24
2019-06-07T13:45:39.670Z,28.33
2019-06-07T13:48:44.261Z,28.24
2019-06-07T13:51:48.921Z,27.95
2019-06-07T13:54:53.384Z,28.10
2019-06-07T13:57:57.841Z,28.18
2019-06-07T14:01:02.296Z,28.31
2019-06-07T14:04:06.769Z,28.50
2019-06-07T14:07:11.208Z,28.57
2019-06-07T14:10:17.106Z,28.60
2019-06-07T14:13:21.931Z,28.75
2019-06-07T14:16:26.405Z,28.84
2019-06-07T14:19:31.018Z,28.89
2019-06-07T14:22:35.789Z,28.92
2019-06-07T14:25:40.247Z,28.92
2019-06-07T14:28:44.698Z,29.01
2019-06-07T14:31:49.151Z,28.74
2019-06-07T14:34:53.602Z,28.77
2019-06-07T14:37:58.056Z,28.71
2019-06-07T14:41:02.859Z,28.87
2019-06-07T14:44:07.299Z,28.91
2019-06-07T14:47:11.760Z,28.85
2019-06-07T14:50:17.413Z,28.87
2019-06-07T14:53:21.881Z,29.03
2019-06-07T14:56:27.178Z,29.12
2019-06-07T14:59:32.732Z,29.25
2019-06-07T15:02:38.394Z,29.25
2019-06-07T15:05:43.668Z,29.33
2019-06-07T15:08:51.345Z,29.37
2019-06-07T15:11:54.293Z,29.26
2019-06-07T15:14:58.737Z,29.31
2019-06-07T15:18:03.369Z,29.39
2019-06-07T15:21:08.154Z,29.40
2019-06-07T15:24:12.887Z,29.42
2019-06-07T15:27:17.473Z,29.44
2019-06-07T15:30:23.011Z,29.59
2019-06-07T15:33:27.889Z,29.48
2019-06-07T15:36:32.406Z,29.10
2019-06-07T15:39:37.140Z,28.77
2019-06-07T15:42:52.058Z,28.37
2019-06-07T15:45:47.783Z,28.05
2019-06-07T15:48:52.559Z,27.78
2019-06-07T15:51:57.289Z,27.61
2019-06-07T15:55:01.733Z,27.44
2019-06-07T15:58:06.443Z,27.42
2019-06-07T16:01:11.174Z,27.32
2019-06-07T16:04:15.634Z,27.41
2019-06-07T16:07:20.083Z,27.69
2019-06-07T16:10:25.138Z,27.99
2019-06-07T16:13:29.588Z,28.26
2019-06-07T16:16:35.062Z,28.34
2019-06-07T16:19:42.981Z,28.12
2019-06-07T16:22:45.751Z,27.99
2019-06-07T16:25:50.456Z,27.60
2019-06-07T16:28:57.256Z,27.09
2019-06-07T16:32:01.350Z,26.67
2019-06-07T16:35:08.267Z,26.44
2019-06-07T16:38:13.061Z,26.33
2019-06-07T16:41:17.523Z,26.17
2019-06-07T16:44:21.974Z,26.09
2019-06-07T16:47:26.433Z,25.97
2019-06-07T16:50:30.925Z,25.87
2019-06-07T16:53:36.174Z,25.77
2019-06-07T16:56:45.331Z,25.74
2019-06-07T16:59:49.188Z,25.62
2019-06-07T17:02:53.373Z,25.37
2019-06-07T17:05:57.816Z,24.91
2019-06-07T17:09:02.269Z,24.50
2019-06-07T17:12:06.728Z,24.22
2019-06-07T17:15:14.276Z,23.90
2019-06-07T17:18:18.738Z,23.67
2019-06-07T17:21:23.181Z,23.59
2019-06-07T17:24:28.123Z,23.48
2019-06-07T17:27:32.575Z,23.40
2019-06-07T17:30:37.023Z,23.12
2019-06-07T17:33:41.954Z,22.84
2019-06-07T17:36:46.516Z,22.39
2019-06-07T17:39:51.260Z,21.96
2019-06-07T17:42:55.705Z,21.49
2019-06-07T17:46:00.162Z,21.35
2019-06-07T17:49:04.772Z,20.87
2019-06-07T17:52:09.234Z,20.51
2019-06-07T17:55:14.522Z,20.13
2019-06-07T17:58:18.997Z,19.91
2019-06-07T18:01:23.511Z,19.72
2019-06-07T18:04:27.947Z,19.65
2019-06-07T18:07:32.941Z,19.50
2019-06-07T18:10:41.011Z,19.41
2019-06-07T18:13:46.029Z,19.24
2019-06-07T18:16:50.628Z,19.15
2019-06-07T18:19:55.299Z,18.93
2019-06-07T18:22:59.749Z,18.88
2019-06-07T18:26:04.208Z,18.82
2019-06-07T18:29:08.645Z,18.72
2019-06-07T18:32:13.711Z,18.64
2019-06-07T18:35:18.673Z,18.56
2019-06-07T18:38:23.387Z,18.50
2019-06-07T18:41:27.823Z,18.33
2019-06-07T18:44:32.546Z,18.30
2019-06-07T18:47:36.984Z,18.24
2019-06-07T18:50:41.513Z,18.15
2019-06-07T18:53:45.960Z,18.12
2019-06-07T18:56:50.742Z,18.04
2019-06-07T18:59:56.585Z,18.07
2019-06-07T19:03:01.066Z,18.10
2019-06-07T19:06:05.525Z,18.01
2019-06-07T19:09:10.304Z,17.98
2019-06-07T19:12:14.753Z,17.94
2019-06-07T19:15:22.541Z,17.87
2019-06-07T19:18:27.248Z,17.77
2019-06-07T19:21:32.498Z,17.79
2019-06-07T19:24:37.343Z,17.74
2019-06-07T19:27:41.795Z,17.73
2019-06-07T19:30:46.247Z,17.81
2019-06-07T19:33:51.066Z,17.76
2019-06-07T19:36:55.698Z,17.71
2019-06-07T19:40:00.572Z,17.68
2019-06-07T19:43:05.047Z,17.65
2019-06-07T19:46:09.470Z,17.72
2019-06-07T19:49:13.926Z,17.63
2019-06-07T19:52:18.374Z,17.53
2019-06-07T19:55:22.827Z,17.43
2019-06-07T19:58:27.303Z,17.32
2019-06-07T20:01:31.754Z,17.36
2019-06-07T20:04:36.237Z,17.35
2019-06-07T20:07:41.846Z,17.39
2019-06-07T20:10:46.313Z,17.30
2019-06-07T20:13:50.780Z,17.37
2019-06-07T20:16:55.269Z,17.31
2019-06-07T20:20:00.483Z,17.31
2019-06-07T20:23:05.378Z,17.27
2019-06-07T20:26:11.043Z,17.27
2019-06-07T20:29:25.844Z,17.41
2019-06-07T20:32:21.762Z,17.48
2019-06-07T20:35:26.221Z,17.59
2019-06-07T20:38:30.676Z,17.53
2019-06-07T20:41:35.138Z,17.60
2019-06-07T20:44:39.596Z,17.64
2019-06-07T20:47:44.038Z,17.49
2019-06-07T20:50:48.505Z,17.46
2019-06-07T20:53:52.963Z,17.43
2019-06-07T20:56:58.805Z,17.24
2019-06-07T21:00:13.693Z,17.06
2019-06-07T21:03:11.231Z,17.11
2019-06-07T21:06:15.679Z,17.19
2019-06-07T21:09:20.187Z,17.23
2019-06-07T21:12:24.636Z,17.25
2019-06-07T21:15:29.091Z,17.20
2019-06-07T21:18:33.534Z,17.17
2019-06-07T21:21:37.993Z,17.14
2019-06-07T21:24:42.450Z,17.24
2019-06-07T21:27:46.894Z,17.41
2019-06-07T21:30:51.596Z,17.62
2019-06-07T21:33:56.078Z,17.48
2019-06-07T21:37:01.691Z,17.47
2019-06-07T21:40:08.218Z,17.31
2019-06-07T21:43:12.910Z,17.19
2019-06-07T21:46:20.553Z,17.22
2019-06-07T21:49:23.774Z,17.07
2019-06-07T21:52:28.492Z,17.04
2019-06-07T21:55:33.237Z,17.07
2019-06-07T21:58:37.954Z,17.09
2019-06-07T22:01:42.406Z,17.08
2019-06-07T22:04:46.855Z,17.08
2019-06-07T22:07:51.298Z,17.12
2019-06-07T22:10:55.748Z,17.06
2019-06-07T22:14:00.186Z,17.13
2019-06-07T22:17:04.629Z,17.13
2019-06-07T22:20:10.786Z,16.92
2019-06-07T22:23:15.479Z,16.80
2019-06-07T22:26:19.922Z,16.79
2019-06-07T22:29:24.652Z,16.82
2019-06-07T22:32:29.094Z,16.46
2019-06-07T22:35:33.554Z,16.43
2019-06-07T22:38:38.014Z,16.42
2019-06-07T22:41:42.479Z,16.48
2019-06-07T22:44:47.211Z,16.26
2019-06-07T22:47:51.661Z,15.99
2019-06-07T22:50:57.788Z,16.16
2019-06-07T22:54:02.260Z,15.95
2019-06-07T22:57:12.013Z,16.07
2019-06-07T23:00:19.393Z,16.00
2019-06-07T23:03:22.908Z,16.09
2019-06-07T23:06:27.680Z,16.20
2019-06-07T23:09:32.513Z,16.39
2019-06-07T23:12:36.961Z,16.26
2019-06-07T23:15:41.866Z,16.05
2019-06-07T23:18:46.308Z,15.99
2019-06-07T23:21:51.124Z,16.12
2019-06-07T23:24:55.558Z,16.18
2019-06-07T23:28:00.089Z,16.06
2019-06-07T23:31:04.535Z,15.90
2019-06-07T23:34:08.973Z,15.86
2019-06-07T23:37:13.427Z,15.84
2019-06-07T23:40:19.567Z,15.72
2019-06-07T23:43:24.360Z,15.59
2019-06-07T23:46:28.803Z,15.66
2019-06-07T23:49:33.244Z,15.54
2019-06-07T23:52:37.691Z,15.45
2019-06-07T23:55:42.135Z,15.23
2019-06-07T23:58:46.587Z,15.16
